Time;durP1;ratioP1;P1;durP2;ratioP2;P2;SDS_P1;SDS_P2;PMS_P1;PMS_P2;Temp;Humidity;BMP_temperature;BMP_pressure;BME280_temperature;BME280_humidity;BME280_pressure;Samples;Min_cycle;Max_cycle;Signal;HPM_P1;HPM_P2
2022/01/15 00:01:14;;;;;;;151.03;27.80;;;1.20;99.90;;;;;;4992729;28;20145;-67
2022/01/15 00:03:41;;;;;;;151.57;28.43;;;1.20;99.90;;;;;;4992490;28;20145;-67
2022/01/15 00:06:08;;;;;;;147.80;29.07;;;1.10;99.90;;;;;;4992185;28;20133;-67
2022/01/15 00:08:35;;;;;;;139.70;27.40;;;1.10;99.90;;;;;;4992088;28;20050;-67
2022/01/15 00:11:03;;;;;;;137.07;27.43;;;1.10;99.90;;;;;;4992046;28;20538;-67
2022/01/15 00:13:30;;;;;;;177.73;30.10;;;1.10;99.90;;;;;;4994416;28;20081;-67
2022/01/15 00:16:06;;;;;;;111.40;26.47;;;1.10;99.90;;;;;;4995790;28;20391;-67
2022/01/15 00:18:43;;;;;;;120.17;27.30;;;1.20;99.90;;;;;;4996309;28;20148;-67
2022/01/15 00:21:10;;;;;;;143.93;28.90;;;1.20;99.90;;;;;;4995725;28;20515;-67
2022/01/15 00:23:37;;;;;;;125.77;27.67;;;1.20;99.90;;;;;;4995720;28;20140;-67
2022/01/15 00:26:05;;;;;;;133.97;28.83;;;1.30;99.90;;;;;;4995568;28;20105;-67
2022/01/15 00:28:32;;;;;;;106.37;25.90;;;1.20;99.90;;;;;;4995645;28;20140;-67
2022/01/15 00:30:59;;;;;;;153.43;29.63;;;1.30;99.90;;;;;;4995535;28;20474;-67
2022/01/15 00:33:29;;;;;;;123.90;27.90;;;1.30;99.90;;;;;;4995379;28;20047;-67
2022/01/15 00:35:57;;;;;;;126.07;28.37;;;1.30;99.90;;;;;;4995293;28;20090;-67
2022/01/15 00:38:24;;;;;;;124.63;30.07;;;1.30;99.90;;;;;;4995397;28;20137;-67
2022/01/15 00:40:51;;;;;;;108.87;26.67;;;1.30;99.90;;;;;;4995376;28;20137;-67
2022/01/15 00:43:19;;;;;;;110.67;26.30;;;1.30;99.90;;;;;;4995221;28;20061;-67
2022/01/15 00:45:46;;;;;;;114.57;26.73;;;1.30;99.90;;;;;;4995048;28;20139;-67
2022/01/15 00:48:13;;;;;;;123.20;27.30;;;1.30;99.90;;;;;;4995482;28;20085;-67
2022/01/15 00:50:40;;;;;;;111.57;26.00;;;1.30;99.90;;;;;;4995490;28;20046;-67
2022/01/15 00:53:07;;;;;;;101.03;27.47;;;1.30;99.90;;;;;;4995261;28;20056;-67
2022/01/15 00:55:34;;;;;;;108.43;27.27;;;1.30;99.90;;;;;;4995288;28;20132;-67
2022/01/15 00:58:01;;;;;;;98.87;25.90;;;1.40;99.90;;;;;;4995228;28;20133;-67
2022/01/15 01:00:29;;;;;;;92.27;24.67;;;1.40;99.90;;;;;;4995015;28;20494;-67
2022/01/15 01:02:57;;;;;;;114.63;27.83;;;1.40;99.90;;;;;;4995133;28;20581;-67
2022/01/15 01:05:24;;;;;;;97.57;25.53;;;1.40;99.90;;;;;;4995012;28;20054;-67
2022/01/15 01:07:51;;;;;;;106.00;25.47;;;1.40;99.90;;;;;;4994968;28;20133;-67
2022/01/15 01:13:27;;;;;;;99.60;26.60;;;1.40;99.90;;;;;;4985919;28;20046;-67
2022/01/15 01:24:13;;;;;;;78.20;23.10;;;1.40;99.90;;;;;;4973992;28;20043;-67
2022/01/15 01:26:46;;;;;;;77.90;21.90;;;1.30;99.90;;;;;;4994717;28;20113;-67
2022/01/15 01:29:24;;;;;;;72.90;21.63;;;1.40;99.90;;;;;;4994517;28;20058;-67
2022/01/15 01:31:58;;;;;;;67.00;21.87;;;1.40;99.90;;;;;;4994419;28;20515;-67
2022/01/15 01:34:28;;;;;;;78.57;20.63;;;1.40;99.90;;;;;;4994713;28;20113;-67
2022/01/15 01:37:01;;;;;;;69.73;22.60;;;1.50;99.90;;;;;;4994734;28;20129;-67
2022/01/15 01:39:37;;;;;;;72.00;21.33;;;1.40;99.90;;;;;;4994404;28;20090;-67
2022/01/15 01:42:11;;;;;;;46.10;15.43;;;1.40;99.90;;;;;;4994116;28;20058;-67
2022/01/15 01:45:04;;;;;;;66.80;21.77;;;1.50;99.90;;;;;;4994394;28;20061;-67
2022/01/15 01:47:40;;;;;;;61.07;19.43;;;1.50;99.90;;;;;;4995821;28;20046;-67
2022/01/15 01:50:10;;;;;;;64.83;20.13;;;1.50;99.90;;;;;;4999234;28;20097;-67
2022/01/15 01:52:37;;;;;;;60.73;20.87;;;1.50;99.90;;;;;;4997139;28;20057;-68
2022/01/15 01:55:06;;;;;;;69.83;20.70;;;1.50;99.90;;;;;;4996442;28;20050;-68
2022/01/15 01:57:33;;;;;;;72.60;21.30;;;1.40;99.90;;;;;;4997973;28;20054;-67
2022/01/15 02:00:00;;;;;;;67.03;20.30;;;1.40;99.90;;;;;;4995338;28;20472;-67
2022/01/15 02:02:28;;;;;;;67.17;22.23;;;1.40;99.90;;;;;;4996500;28;20100;-67
2022/01/15 02:04:59;;;;;;;74.17;22.10;;;1.50;99.90;;;;;;4994967;28;20062;-67
2022/01/15 02:07:26;;;;;;;69.57;21.20;;;1.50;99.90;;;;;;4993911;28;20129;-67
2022/01/15 02:09:54;;;;;;;69.17;20.33;;;1.50;99.90;;;;;;4993954;28;20050;-67
2022/01/15 02:12:21;;;;;;;70.37;21.40;;;1.50;99.90;;;;;;4993580;28;20509;-67
2022/01/15 02:14:48;;;;;;;83.50;23.63;;;1.50;99.90;;;;;;4993610;28;20150;-67
2022/01/15 02:17:18;;;;;;;81.70;24.83;;;1.50;99.90;;;;;;4993530;28;20096;-67
2022/01/15 02:20:08;;;;;;;86.40;23.20;;;1.50;99.90;;;;;;4993639;28;20466;-67
2022/01/15 02:25:18;;;;;;;80.60;23.03;;;1.50;99.90;;;;;;4993314;28;20049;-67
2022/01/15 02:27:45;;;;;;;66.23;19.47;;;1.50;99.90;;;;;;4993415;28;20137;-67
2022/01/15 02:30:14;;;;;;;82.87;24.57;;;1.50;99.90;;;;;;4993345;28;20477;-67
2022/01/15 02:32:41;;;;;;;86.13;22.83;;;1.50;99.90;;;;;;4993222;28;20101;-67
2022/01/15 02:35:13;;;;;;;74.40;23.47;;;1.50;99.90;;;;;;4992267;28;20082;-67
2022/01/15 02:37:40;;;;;;;82.10;22.80;;;1.50;99.90;;;;;;4993248;28;20121;-67
2022/01/15 02:40:10;;;;;;;83.57;23.17;;;1.50;99.90;;;;;;4993109;28;20081;-67
2022/01/15 02:42:37;;;;;;;78.13;23.23;;;1.50;99.90;;;;;;4993172;28;20082;-67
2022/01/15 02:45:08;;;;;;;77.97;22.10;;;1.50;99.90;;;;;;4992938;28;20526;-67
2022/01/15 02:50:22;;;;;;;83.03;22.90;;;1.50;99.90;;;;;;4992941;28;20525;-67
2022/01/15 02:52:49;;;;;;;74.20;23.33;;;1.50;99.90;;;;;;4992780;28;20050;-67
2022/01/15 02:55:16;;;;;;;86.57;23.47;;;1.50;99.90;;;;;;4992748;28;20129;-67
2022/01/15 02:57:42;;;;;;;81.93;23.00;;;1.50;99.90;;;;;;4992947;28;20129;-67
2022/01/15 03:00:11;;;;;;;83.40;23.87;;;1.50;99.90;;;;;;4992879;28;20057;-67
2022/01/15 03:02:38;;;;;;;82.10;22.03;;;1.50;99.90;;;;;;4992596;28;20056;-67
2022/01/15 03:05:06;;;;;;;85.80;24.17;;;1.50;99.90;;;;;;4992499;28;20046;-67
2022/01/15 03:07:36;;;;;;;72.17;20.70;;;1.60;99.90;;;;;;4992774;28;20082;-67
2022/01/15 03:10:03;;;;;;;84.50;24.57;;;1.60;99.90;;;;;;4993089;28;20083;-67
2022/01/15 03:12:30;;;;;;;78.17;21.93;;;1.50;99.90;;;;;;4992627;28;20050;-67
2022/01/15 03:15:01;;;;;;;79.90;23.20;;;1.50;99.90;;;;;;4992355;28;20129;-67
2022/01/15 03:17:28;;;;;;;79.80;25.80;;;1.60;99.90;;;;;;4992688;28;20109;-67
2022/01/15 03:19:55;;;;;;;72.43;21.83;;;1.50;99.90;;;;;;4992334;28;20051;-67
2022/01/15 03:22:22;;;;;;;73.43;21.87;;;1.50;99.90;;;;;;4992260;28;20056;-67
2022/01/15 03:24:51;;;;;;;74.90;23.47;;;1.50;99.90;;;;;;4992268;28;20055;-67
2022/01/15 03:27:18;;;;;;;82.47;24.63;;;1.50;99.90;;;;;;4992521;28;20046;-67
2022/01/15 03:29:45;;;;;;;85.27;24.63;;;1.60;99.90;;;;;;4992440;28;20262;-67
2022/01/15 03:32:11;;;;;;;80.30;23.97;;;1.50;99.90;;;;;;4992146;28;20495;-67
2022/01/15 03:34:38;;;;;;;63.60;20.50;;;1.60;99.90;;;;;;4992538;28;20100;-67
2022/01/15 03:37:05;;;;;;;74.90;23.43;;;1.60;99.90;;;;;;4992157;28;20474;-67
2022/01/15 03:39:33;;;;;;;74.43;22.07;;;1.60;99.90;;;;;;4992312;28;20133;-67
2022/01/15 03:42:01;;;;;;;63.90;19.77;;;1.60;99.90;;;;;;4992254;28;20149;-67
2022/01/15 03:44:28;;;;;;;65.77;21.40;;;1.60;99.90;;;;;;4992583;28;20077;-67
2022/01/15 03:46:55;;;;;;;66.00;20.40;;;1.60;99.90;;;;;;4992054;28;20077;-67
2022/01/15 03:49:22;;;;;;;61.43;20.03;;;1.60;99.90;;;;;;4992137;28;20133;-67
2022/01/15 03:51:49;;;;;;;67.20;21.83;;;1.60;99.90;;;;;;5084919;23;20133;-73
2022/01/15 03:54:15;;;;;;;62.57;20.33;;;1.60;99.90;;;;;;4994665;28;20137;-72
2022/01/15 03:56:42;;;;;;;65.77;19.83;;;1.60;99.90;;;;;;4994494;28;20137;-72
2022/01/15 03:59:11;;;;;;;68.63;20.67;;;1.60;99.90;;;;;;4995036;28;20050;-73
2022/01/15 04:01:37;;;;;;;72.67;20.53;;;1.60;99.90;;;;;;4994493;28;20133;-72
2022/01/15 04:04:05;;;;;;;68.47;20.80;;;1.60;99.90;;;;;;4994774;28;20088;-72
2022/01/15 04:06:31;;;;;;;63.00;20.23;;;1.60;99.90;;;;;;4994667;28;20185;-72
2022/01/15 04:08:59;;;;;;;58.43;20.03;;;1.60;99.90;;;;;;4994763;28;20562;-76
2022/01/15 04:11:26;;;;;;;62.77;22.10;;;1.60;99.90;;;;;;4994451;28;20092;-70
2022/01/15 04:13:53;;;;;;;68.17;21.87;;;1.60;99.90;;;;;;4994628;28;20046;-70
2022/01/15 04:16:21;;;;;;;62.33;20.57;;;1.60;99.90;;;;;;4994837;28;20110;-70
2022/01/15 04:18:48;;;;;;;68.63;20.77;;;1.70;99.90;;;;;;4994575;28;20517;-70
2022/01/15 04:21:15;;;;;;;59.57;19.40;;;1.70;99.90;;;;;;4994426;28;20115;-71
2022/01/15 04:23:42;;;;;;;62.87;21.13;;;1.70;99.90;;;;;;4994611;28;20086;-70
2022/01/15 04:26:09;;;;;;;60.20;19.57;;;1.70;99.90;;;;;;4994498;28;20466;-70
2022/01/15 04:28:36;;;;;;;70.90;21.20;;;1.60;99.90;;;;;;4994651;28;20082;-71
2022/01/15 04:31:05;;;;;;;53.03;19.07;;;1.70;99.90;;;;;;4994618;28;20137;-70
2022/01/15 04:33:35;;;;;;;58.17;19.67;;;1.70;99.90;;;;;;4994748;28;20050;-70
2022/01/15 04:36:02;;;;;;;55.90;18.87;;;1.70;99.90;;;;;;4994676;28;20145;-70
2022/01/15 04:38:31;;;;;;;58.03;19.83;;;1.70;99.90;;;;;;4994390;28;20050;-70
2022/01/15 04:40:58;;;;;;;57.73;20.07;;;1.70;99.90;;;;;;4994882;28;20054;-71
2022/01/15 04:43:25;;;;;;;54.93;19.67;;;1.70;99.90;;;;;;4993839;28;20078;-70
2022/01/15 04:45:52;;;;;;;58.17;19.63;;;1.70;99.90;;;;;;4994386;28;20566;-70
2022/01/15 04:48:19;;;;;;;64.13;21.43;;;1.70;99.90;;;;;;4994656;28;20073;-70
2022/01/15 04:50:48;;;;;;;57.57;19.23;;;1.70;99.90;;;;;;4994300;28;20108;-70
2022/01/15 04:53:15;;;;;;;59.10;20.23;;;1.60;99.90;;;;;;4994175;28;20499;-70
2022/01/15 04:55:42;;;;;;;61.27;21.07;;;1.70;99.90;;;;;;4994048;28;20128;-71
2022/01/15 04:58:09;;;;;;;53.50;18.97;;;1.70;99.90;;;;;;4994174;28;20479;-72
2022/01/15 05:00:38;;;;;;;58.80;19.40;;;1.70;99.90;;;;;;4997435;28;20569;-72
2022/01/15 05:03:05;;;;;;;59.10;20.10;;;1.70;99.90;;;;;;4997492;28;20054;-72
2022/01/15 05:05:32;;;;;;;58.07;19.17;;;1.60;99.90;;;;;;4997498;28;20112;-72
2022/01/15 05:08:02;;;;;;;58.03;19.57;;;1.70;99.90;;;;;;4997801;28;20106;-72
2022/01/15 05:10:29;;;;;;;64.93;19.57;;;1.70;99.90;;;;;;4997372;28;20061;-72
2022/01/15 05:12:58;;;;;;;55.07;18.20;;;1.70;99.90;;;;;;4997915;28;20054;-72
2022/01/15 05:15:25;;;;;;;53.83;18.30;;;1.70;99.90;;;;;;4997547;28;20502;-72
2022/01/15 05:17:52;;;;;;;56.27;18.33;;;1.70;99.90;;;;;;4997827;28;20133;-72
2022/01/15 05:20:22;;;;;;;60.50;21.50;;;1.70;99.90;;;;;;4997994;28;20078;-73
2022/01/15 05:22:50;;;;;;;50.03;18.00;;;1.70;99.90;;;;;;4997542;28;20050;-72
2022/01/15 05:25:18;;;;;;;62.07;20.93;;;1.70;99.90;;;;;;4996930;28;20054;-72
2022/01/15 05:27:46;;;;;;;53.13;17.67;;;1.70;99.90;;;;;;4997515;28;20056;-72
2022/01/15 05:30:14;;;;;;;61.37;20.10;;;1.60;99.90;;;;;;4997498;28;20050;-72
2022/01/15 05:32:41;;;;;;;60.97;19.93;;;1.70;99.90;;;;;;4997261;28;20110;-72
2022/01/15 05:35:09;;;;;;;60.47;19.57;;;1.70;99.90;;;;;;4997389;28;20341;-73
2022/01/15 05:37:36;;;;;;;62.43;18.97;;;1.70;99.90;;;;;;4996899;28;20141;-71
2022/01/15 05:40:05;;;;;;;58.70;20.33;;;1.70;99.90;;;;;;4997315;28;20464;-70
2022/01/15 05:42:33;;;;;;;61.40;21.40;;;1.70;99.90;;;;;;4996477;28;20141;-70
2022/01/15 05:45:00;;;;;;;63.50;19.10;;;1.70;99.90;;;;;;4997274;28;20137;-70
2022/01/15 05:47:27;;;;;;;69.10;21.20;;;1.70;99.90;;;;;;4997366;28;20085;-70
2022/01/15 05:49:54;;;;;;;75.37;22.30;;;1.70;99.90;;;;;;4997197;28;20082;-70
2022/01/15 05:52:21;;;;;;;66.97;20.50;;;1.70;99.90;;;;;;4996500;28;20056;-70
2022/01/15 05:54:48;;;;;;;66.80;21.53;;;1.70;99.90;;;;;;4996486;28;20378;-70
2022/01/15 05:57:14;;;;;;;68.23;21.87;;;1.70;99.90;;;;;;4996972;28;20137;-70
2022/01/15 05:59:44;;;;;;;65.47;21.33;;;1.70;99.90;;;;;;4996979;28;20105;-70
2022/01/15 06:02:11;;;;;;;65.07;20.37;;;1.70;99.90;;;;;;4996381;28;20082;-70
2022/01/15 06:04:39;;;;;;;62.60;20.33;;;1.70;99.90;;;;;;4996629;28;20137;-70
2022/01/15 06:07:05;;;;;;;69.30;21.17;;;1.70;99.90;;;;;;4996623;28;20529;-69
2022/01/15 06:09:32;;;;;;;60.67;19.60;;;1.70;99.90;;;;;;4996709;28;20043;-70
2022/01/15 06:12:01;;;;;;;68.37;20.27;;;1.70;99.90;;;;;;4996161;28;20086;-70
2022/01/15 06:14:29;;;;;;;56.20;19.87;;;1.70;99.90;;;;;;4996928;28;20046;-70
2022/01/15 06:16:59;;;;;;;68.40;21.27;;;1.70;99.90;;;;;;4996635;28;20494;-70
2022/01/15 06:19:26;;;;;;;63.37;20.70;;;1.70;99.90;;;;;;4996837;28;20046;-70
2022/01/15 06:21:53;;;;;;;66.97;20.70;;;1.70;99.90;;;;;;4996135;28;20142;-70
2022/01/15 06:24:20;;;;;;;64.33;20.73;;;1.70;99.90;;;;;;4996231;28;20487;-70
2022/01/15 06:26:47;;;;;;;60.30;20.43;;;1.70;99.90;;;;;;4997116;28;20133;-71
2022/01/15 06:29:14;;;;;;;71.23;22.43;;;1.70;99.90;;;;;;4997395;28;20054;-73
2022/01/15 06:31:41;;;;;;;66.47;19.60;;;1.70;99.90;;;;;;4997355;28;20105;-74
2022/01/15 06:34:09;;;;;;;65.40;20.47;;;1.60;99.90;;;;;;4997405;28;20526;-72
2022/01/15 06:36:36;;;;;;;71.60;21.60;;;1.60;99.90;;;;;;4996636;28;20082;-73
2022/01/15 06:39:03;;;;;;;71.20;21.30;;;1.60;99.90;;;;;;4997157;28;20085;-72
2022/01/15 06:41:30;;;;;;;61.80;20.07;;;1.60;99.90;;;;;;4997184;28;20074;-72
2022/01/15 06:43:57;;;;;;;67.93;20.53;;;1.60;99.90;;;;;;4997222;28;20137;-70
2022/01/15 06:46:24;;;;;;;72.73;21.73;;;1.60;99.90;;;;;;4996963;28;20082;-72
2022/01/15 06:48:51;;;;;;;66.10;21.17;;;1.60;99.90;;;;;;4997420;28;20042;-71
2022/01/15 06:51:19;;;;;;;69.53;21.70;;;1.70;99.90;;;;;;4996284;28;20137;-70
2022/01/15 06:53:46;;;;;;;76.67;21.87;;;1.70;99.90;;;;;;4996235;28;20133;-71
2022/01/15 06:56:13;;;;;;;63.27;20.87;;;1.70;99.90;;;;;;4996085;28;20130;-71
2022/01/15 06:58:40;;;;;;;67.20;20.43;;;1.70;99.90;;;;;;4996148;28;20133;-70
2022/01/15 07:01:07;;;;;;;62.73;20.57;;;1.70;99.90;;;;;;4995781;28;20053;-72
2022/01/15 07:03:34;;;;;;;58.43;20.27;;;1.70;99.90;;;;;;4996512;28;20077;-71
2022/01/15 07:06:01;;;;;;;70.70;20.47;;;1.70;99.90;;;;;;4995867;28;20116;-71
2022/01/15 07:08:29;;;;;;;56.10;18.17;;;1.70;99.90;;;;;;4996314;28;20133;-72
2022/01/15 07:10:56;;;;;;;59.87;18.93;;;1.70;99.90;;;;;;4995831;28;20133;-71
2022/01/15 07:13:25;;;;;;;56.23;20.10;;;1.70;99.90;;;;;;4995600;28;20137;-70
2022/01/15 07:15:52;;;;;;;63.43;20.20;;;1.70;99.90;;;;;;4995719;28;20410;-70
2022/01/15 07:18:19;;;;;;;60.27;19.63;;;1.70;99.90;;;;;;4995418;28;20557;-71
2022/01/15 07:20:46;;;;;;;66.20;20.97;;;1.70;99.90;;;;;;4995166;28;20541;-69
2022/01/15 07:23:13;;;;;;;63.83;20.30;;;1.80;99.90;;;;;;4995893;28;20061;-70
2022/01/15 07:25:41;;;;;;;60.80;21.20;;;1.80;99.90;;;;;;4996924;28;20133;-69
2022/01/15 07:28:08;;;;;;;65.40;21.57;;;1.80;99.90;;;;;;4995946;28;20125;-69
2022/01/15 07:30:36;;;;;;;62.40;20.57;;;1.80;99.90;;;;;;4996158;28;20083;-70
2022/01/15 07:33:03;;;;;;;74.60;23.27;;;1.80;99.90;;;;;;4995587;28;20046;-69
2022/01/15 07:35:30;;;;;;;65.67;21.23;;;1.80;99.90;;;;;;4995383;28;20132;-69
2022/01/15 07:37:58;;;;;;;61.60;21.70;;;1.80;99.90;;;;;;4996069;28;20122;-70
2022/01/15 07:40:25;;;;;;;69.17;22.23;;;1.80;99.90;;;;;;4995720;28;20096;-70
2022/01/15 07:42:53;;;;;;;68.77;22.70;;;1.80;99.90;;;;;;4995003;28;20114;-71
2022/01/15 07:45:20;;;;;;;70.47;22.23;;;1.90;99.90;;;;;;4994831;28;20295;-70
2022/01/15 07:47:47;;;;;;;64.03;20.73;;;2.00;99.90;;;;;;4994950;28;20399;-70
2022/01/15 07:50:17;;;;;;;65.20;21.90;;;2.00;99.90;;;;;;4994712;28;20120;-71
2022/01/15 07:52:44;;;;;;;67.50;23.20;;;2.00;99.90;;;;;;4994475;28;20054;-70
2022/01/15 07:55:11;;;;;;;68.93;21.60;;;2.00;99.90;;;;;;4995295;28;20094;-71
2022/01/15 07:57:40;;;;;;;65.67;21.57;;;2.00;99.90;;;;;;4995335;28;20133;-71
2022/01/15 08:00:10;;;;;;;65.00;22.17;;;2.10;99.90;;;;;;4995358;28;20378;-69
2022/01/15 08:02:37;;;;;;;62.57;21.60;;;2.00;99.90;;;;;;4995457;28;20105;-69
2022/01/15 08:05:05;;;;;;;67.90;22.60;;;2.00;99.90;;;;;;4994628;28;20150;-70
2022/01/15 08:07:32;;;;;;;75.07;23.20;;;2.10;99.90;;;;;;4994790;28;20057;-69
2022/01/15 08:10:00;;;;;;;64.67;22.53;;;2.20;99.90;;;;;;4995174;28;20058;-71
2022/01/15 08:12:27;;;;;;;66.33;21.03;;;2.00;99.90;;;;;;4994842;28;20065;-73
2022/01/15 08:14:55;;;;;;;70.33;23.03;;;2.20;99.90;;;;;;4994800;28;20070;-69
2022/01/15 08:17:23;;;;;;;66.57;23.37;;;2.20;99.90;;;;;;4994603;28;20507;-70
2022/01/15 08:19:50;;;;;;;75.77;25.10;;;2.20;99.90;;;;;;4995060;28;20046;-70
2022/01/15 08:22:17;;;;;;;77.80;24.00;;;2.30;99.90;;;;;;4994832;28;20084;-69
2022/01/15 08:24:44;;;;;;;80.37;25.60;;;2.30;99.90;;;;;;4994216;28;20050;-71
2022/01/15 08:27:11;;;;;;;69.40;23.03;;;2.40;99.90;;;;;;4994556;28;20084;-71
2022/01/15 08:29:38;;;;;;;73.67;25.37;;;2.40;99.90;;;;;;4994672;28;20129;-71
2022/01/15 08:32:05;;;;;;;80.30;25.97;;;2.50;99.90;;;;;;4994192;28;20533;-71
2022/01/15 08:34:34;;;;;;;76.70;23.67;;;2.50;99.90;;;;;;4996249;28;20058;-72
2022/01/15 08:37:01;;;;;;;80.77;25.43;;;2.40;99.90;;;;;;4998491;28;20078;-72
2022/01/15 08:39:28;;;;;;;77.67;25.50;;;2.50;99.90;;;;;;4998241;28;20112;-72
2022/01/15 08:41:54;;;;;;;80.40;25.63;;;2.50;99.90;;;;;;4998010;28;20085;-71
2022/01/15 08:44:24;;;;;;;77.50;24.50;;;2.60;99.90;;;;;;4997671;28;20495;-71
2022/01/15 08:46:52;;;;;;;85.13;23.97;;;2.60;99.90;;;;;;4997976;28;20052;-73
2022/01/15 08:49:19;;;;;;;76.07;24.93;;;2.80;99.90;;;;;;4997930;28;20058;-72
2022/01/15 08:51:47;;;;;;;85.13;26.80;;;2.80;99.90;;;;;;4997924;28;20112;-72
2022/01/15 08:54:14;;;;;;;78.23;24.83;;;2.80;99.90;;;;;;4998192;28;20093;-73
2022/01/15 08:56:41;;;;;;;72.20;23.63;;;2.80;99.90;;;;;;4997639;28;20050;-72
2022/01/15 08:59:08;;;;;;;86.87;26.53;;;3.00;99.90;;;;;;4997806;28;20078;-72
2022/01/15 09:01:35;;;;;;;71.23;24.07;;;3.00;99.90;;;;;;4997983;28;20081;-72
2022/01/15 09:04:02;;;;;;;86.20;27.10;;;3.00;99.90;;;;;;4997556;28;20134;-71
2022/01/15 09:06:29;;;;;;;75.47;25.50;;;3.00;99.90;;;;;;4997505;28;20050;-72
2022/01/15 09:08:58;;;;;;;70.97;25.03;;;3.10;99.90;;;;;;4997532;28;20084;-71
2022/01/15 09:11:24;;;;;;;77.63;24.63;;;3.10;99.90;;;;;;4997369;28;20133;-71
2022/01/15 09:13:51;;;;;;;78.83;24.97;;;3.10;99.90;;;;;;4997129;28;20085;-71
2022/01/15 09:16:18;;;;;;;77.13;24.90;;;3.10;99.90;;;;;;4996799;28;20130;-72
2022/01/15 09:18:45;;;;;;;76.47;25.67;;;3.20;99.90;;;;;;4997264;28;20137;-75
2022/01/15 09:21:12;;;;;;;63.50;22.23;;;3.30;99.90;;;;;;4996715;28;20137;-72
2022/01/15 09:23:39;;;;;;;71.50;24.43;;;3.40;99.90;;;;;;4997019;28;20129;-71
2022/01/15 09:26:18;;;;;;;79.60;25.63;;;3.50;99.90;;;;;;4996635;28;20125;-71
2022/01/15 09:31:29;;;;;;;71.20;24.57;;;3.50;99.90;;;;;;4996665;28;20173;-72
2022/01/15 09:33:56;;;;;;;71.93;24.17;;;3.50;99.90;;;;;;4996446;28;20137;-72
2022/01/15 09:36:23;;;;;;;72.70;25.17;;;3.40;99.90;;;;;;4996591;28;20114;-72
2022/01/15 09:38:50;;;;;;;72.03;23.73;;;3.20;99.90;;;;;;4996561;28;20133;-71
2022/01/15 09:41:20;;;;;;;68.27;23.13;;;3.40;99.90;;;;;;4996349;28;20082;-70
2022/01/15 09:43:48;;;;;;;70.20;24.33;;;3.60;99.90;;;;;;4996298;28;20129;-71
2022/01/15 09:46:18;;;;;;;71.20;23.50;;;3.70;99.90;;;;;;4995593;28;20070;-70
2022/01/15 09:48:47;;;;;;;74.27;25.77;;;3.80;99.90;;;;;;4996838;28;20088;-73
2022/01/15 09:53:59;;;;;;;65.87;23.60;;;3.80;99.90;;;;;;4957597;29;20537;-68
2022/01/15 09:56:27;;;;;;;61.20;23.10;;;3.90;99.90;;;;;;4958444;29;20109;-67
2022/01/15 09:58:56;;;;;;;67.38;23.52;;;4.00;99.90;;;;;;4955472;29;20134;-67
2022/01/15 10:01:23;;;;;;;63.53;22.60;;;4.10;99.90;;;;;;4955161;29;20094;-66
2022/01/15 10:03:49;;;;;;;54.30;21.10;;;4.20;99.90;;;;;;4955200;28;20139;-67
2022/01/15 10:06:16;;;;;;;51.25;19.00;;;4.10;99.90;;;;;;4954772;29;20499;-67
2022/01/15 10:08:59;;;;;;;48.45;18.52;;;4.30;99.90;;;;;;4955231;29;20134;-67
2022/01/15 10:11:42;;;;;;;49.97;19.27;;;4.20;99.90;;;;;;4955023;28;20051;-67
2022/01/15 10:14:24;;;;;;;53.72;19.33;;;4.40;99.90;;;;;;4955078;29;20464;-67
2022/01/15 10:16:51;;;;;;;54.30;19.40;;;4.30;99.90;;;;;;4954930;29;20420;-68
2022/01/15 10:19:25;;;;;;;50.30;20.10;;;4.30;99.90;;;;;;4954921;29;20089;-68
2022/01/15 10:22:09;;;;;;;47.95;19.33;;;4.40;99.90;;;;;;4955032;28;20130;-68
2022/01/15 10:24:36;;;;;;;48.92;19.27;;;4.50;99.90;;;;;;4954764;29;20138;-68
2022/01/15 10:27:26;;;;;;;51.80;19.77;;;4.60;99.90;;;;;;4954629;29;20138;-68
2022/01/15 10:29:56;;;;;;;48.78;19.13;;;4.60;99.90;;;;;;4954697;29;20059;-68
2022/01/15 10:32:24;;;;;;;51.35;20.83;;;4.30;99.90;;;;;;4954711;28;20208;-68
2022/01/15 10:34:52;;;;;;;44.08;17.58;;;4.50;99.90;;;;;;4954633;29;20152;-68
2022/01/15 10:37:21;;;;;;;46.25;17.77;;;4.80;99.90;;;;;;4954953;29;20138;-68
2022/01/15 10:39:57;;;;;;;48.42;17.98;;;5.00;99.90;;;;;;4954807;29;20511;-68
2022/01/15 10:42:26;;;;;;;45.17;18.13;;;4.90;99.90;;;;;;4954548;28;20567;-68
2022/01/15 10:44:54;;;;;;;39.97;17.10;;;5.00;99.90;;;;;;4954296;29;20055;-68
2022/01/15 10:47:23;;;;;;;38.70;17.67;;;4.90;99.90;;;;;;4954664;29;20073;-68
2022/01/15 10:49:51;;;;;;;38.75;16.42;;;4.80;99.90;;;;;;4955024;29;20137;-68
2022/01/15 10:52:20;;;;;;;42.33;16.88;;;4.90;99.90;;;;;;4954589;28;20051;-68
2022/01/15 10:55:01;;;;;;;37.30;17.02;;;4.90;99.90;;;;;;4954927;29;20473;-68
2022/01/15 10:57:31;;;;;;;38.38;16.95;;;4.80;99.90;;;;;;4954382;28;20055;-68
2022/01/15 11:00:02;;;;;;;42.15;16.98;;;5.00;99.90;;;;;;4954618;29;20047;-68
2022/01/15 11:02:29;;;;;;;49.42;17.45;;;5.00;99.90;;;;;;4954866;28;20089;-68
2022/01/15 11:04:56;;;;;;;37.90;16.33;;;4.80;99.90;;;;;;4954470;29;20051;-68
2022/01/15 11:07:24;;;;;;;33.83;15.20;;;5.10;99.90;;;;;;4954850;29;20063;-68
2022/01/15 11:09:53;;;;;;;35.92;15.50;;;5.10;99.90;;;;;;4954481;29;20137;-68
2022/01/15 11:12:25;;;;;;;37.15;15.85;;;5.00;99.90;;;;;;4953839;28;20127;-68
2022/01/15 11:14:53;;;;;;;32.58;14.70;;;5.20;99.90;;;;;;4954013;29;20141;-68
2022/01/15 11:17:20;;;;;;;35.60;16.60;;;5.10;99.90;;;;;;4955518;29;20059;-68
2022/01/15 11:19:51;;;;;;;32.88;14.27;;;5.10;99.90;;;;;;4954365;29;20595;-68
2022/01/15 11:22:21;;;;;;;32.95;15.13;;;5.20;99.90;;;;;;4954212;28;20079;-68
2022/01/15 11:24:49;;;;;;;35.75;14.40;;;5.30;99.90;;;;;;4953680;29;20055;-68
2022/01/15 11:27:16;;;;;;;33.53;14.27;;;5.20;99.90;;;;;;4954157;29;20393;-68
2022/01/15 11:29:46;;;;;;;29.17;12.98;;;5.10;99.90;;;;;;4953792;29;20138;-68
2022/01/15 11:32:15;;;;;;;26.38;12.75;;;5.10;99.90;;;;;;4953760;28;20130;-68
2022/01/15 11:34:44;;;;;;;27.67;12.32;;;5.30;99.90;;;;;;4953900;29;20051;-68
2022/01/15 11:37:17;;;;;;;31.35;14.15;;;5.30;99.90;;;;;;4953642;29;20150;-68
2022/01/15 11:39:45;;;;;;;31.63;13.77;;;5.30;99.90;;;;;;4953987;29;20139;-68
2022/01/15 11:42:27;;;;;;;31.67;14.38;;;5.10;99.90;;;;;;4953689;28;20142;-68
2022/01/15 11:44:55;;;;;;;29.60;12.57;;;5.10;99.90;;;;;;4952937;28;20051;-68
2022/01/15 11:47:25;;;;;;;27.80;12.35;;;5.10;99.90;;;;;;4967136;28;20137;-68
2022/01/15 11:49:54;;;;;;;30.02;13.20;;;5.20;99.90;;;;;;4955418;28;20051;-68
2022/01/15 11:52:42;;;;;;;26.45;11.90;;;5.10;99.90;;;;;;4953281;28;20047;-68
2022/01/15 11:55:24;;;;;;;30.30;14.02;;;5.30;99.90;;;;;;4942409;29;20503;-67
2022/01/15 11:57:58;;;;;;;27.13;12.52;;;5.10;99.90;;;;;;4953992;29;20062;-67
2022/01/15 12:00:33;;;;;;;21.63;9.65;;;5.30;99.90;;;;;;4953875;29;20423;-67
2022/01/15 12:03:12;;;;;;;12.60;5.65;;;5.30;99.90;;;;;;4953463;28;20138;-67
2022/01/15 12:05:41;;;;;;;9.57;3.58;;;5.10;99.90;;;;;;4954345;29;20393;-67
2022/01/15 12:08:38;;;;;;;9.27;4.10;;;4.90;99.90;;;;;;4955734;28;20062;-67
2022/01/15 12:11:07;;;;;;;9.07;3.55;;;4.90;99.90;;;;;;4958859;29;20142;-67
2022/01/15 12:13:51;;;;;;;12.05;5.30;;;5.00;99.90;;;;;;4958102;28;20472;-67
2022/01/15 12:16:28;;;;;;;8.48;3.40;;;4.90;99.90;;;;;;4958379;29;20055;-67
2022/01/15 12:18:59;;;;;;;7.68;3.17;;;4.80;99.90;;;;;;4958379;29;20058;-67
2022/01/15 12:21:55;;;;;;;7.00;2.90;;;4.80;99.90;;;;;;4958014;29;20055;-67
2022/01/15 12:24:53;;;;;;;6.50;2.85;;;5.00;99.90;;;;;;4938597;29;20055;-67
2022/01/15 12:27:25;;;;;;;8.73;3.42;;;4.80;99.90;;;;;;4958030;29;20134;-67
2022/01/15 12:30:00;;;;;;;8.02;3.00;;;4.90;99.90;;;;;;4957147;29;20055;-67
2022/01/15 12:32:29;;;;;;;7.47;3.10;;;4.90;99.90;;;;;;4956954;28;20063;-67
2022/01/15 12:34:59;;;;;;;6.97;2.80;;;4.80;99.90;;;;;;4957608;29;20090;-67
2022/01/15 12:37:26;;;;;;;8.20;3.10;;;4.80;99.90;;;;;;4957797;29;20087;-67
2022/01/15 12:39:53;;;;;;;6.57;2.85;;;4.70;99.90;;;;;;4957228;29;20055;-67
2022/01/15 12:42:20;;;;;;;6.03;2.65;;;4.70;99.90;;;;;;4957009;28;20051;-66
2022/01/15 12:44:49;;;;;;;7.28;2.88;;;4.60;99.90;;;;;;4956884;29;20078;-67
2022/01/15 12:47:17;;;;;;;6.78;3.20;;;4.70;99.90;;;;;;4956989;29;20515;-67
2022/01/15 12:49:47;;;;;;;6.60;2.97;;;4.90;99.90;;;;;;4957356;29;20106;-67
2022/01/15 12:52:20;;;;;;;5.78;2.17;;;4.90;99.90;;;;;;4956897;28;20048;-67
2022/01/15 12:54:49;;;;;;;6.47;2.47;;;4.60;99.90;;;;;;4957121;29;20093;-67
2022/01/15 12:57:41;;;;;;;6.82;2.60;;;4.70;99.90;;;;;;4956586;29;20094;-67
2022/01/15 13:00:10;;;;;;;6.78;3.05;;;4.70;99.90;;;;;;4956512;29;20138;-67
2022/01/15 13:02:37;;;;;;;7.05;2.40;;;4.70;99.90;;;;;;4956352;28;20126;-67
2022/01/15 13:05:05;;;;;;;5.70;2.17;;;4.50;99.90;;;;;;4956168;29;20090;-67
2022/01/15 13:10:28;;;;;;;7.28;2.92;;;4.60;99.90;;;;;;5213784;27;20989;-67
2022/01/15 13:12:55;;;;;;;6.28;2.58;;;4.70;99.90;;;;;;5179367;27;20130;-67